Time;durP1;ratioP1;P1;durP2;ratioP2;P2;SDS_P1;SDS_P2;PMS_P1;PMS_P2;Temp;Humidity;BMP_temperature;BMP_pressure;BME280_temperature;BME280_humidity;BME280_pressure;Samples;Min_cycle;Max_cycle;Signal;HPM_P1;HPM_P2
2021/07/11 00:02:09;;;;;;;;;;;20.00;99.90;;;;;;4987048;28;19987;-59
2021/07/11 00:04:34;;;;;;;;;;;20.10;99.90;;;;;;4987645;28;20023;-58
2021/07/11 00:07:01;;;;;;;;;;;20.00;99.90;;;;;;4986744;28;20218;-58
2021/07/11 00:09:26;;;;;;;;;;;20.00;99.90;;;;;;4987204;28;20068;-58
2021/07/11 00:11:52;;;;;;;;;;;19.80;99.90;;;;;;4987149;28;19990;-58
2021/07/11 00:14:17;;;;;;;;;;;19.70;99.90;;;;;;4986136;28;20053;-58
2021/07/11 00:16:43;;;;;;;;;;;19.60;99.90;;;;;;4987275;28;20271;-58
2021/07/11 00:19:08;;;;;;;;;;;19.60;99.90;;;;;;4986853;28;19987;-59
2021/07/11 00:21:34;;;;;;;;;;;19.80;99.90;;;;;;4987616;28;20046;-58
2021/07/11 00:24:00;;;;;;;;;;;19.80;99.90;;;;;;4986741;28;20010;-58
2021/07/11 00:26:25;;;;;;;;;;;19.70;99.90;;;;;;4986836;28;20082;-58
2021/07/11 00:28:50;;;;;;;;;;;19.80;99.90;;;;;;4986449;28;19990;-58
2021/07/11 00:31:16;;;;;;;;;;;19.80;99.90;;;;;;4986468;28;19995;-59
2021/07/11 00:33:42;;;;;;;;;;;19.90;99.90;;;;;;4985966;28;19986;-58
2021/07/11 00:36:08;;;;;;;;;;;19.80;99.90;;;;;;4986731;28;19991;-58
2021/07/11 00:38:34;;;;;;;;;;;19.80;99.90;;;;;;4986907;28;19990;-58
2021/07/11 00:41:00;;;;;;;;;;;19.80;99.90;;;;;;4986441;28;19991;-58
2021/07/11 00:43:25;;;;;;;;;;;19.80;99.90;;;;;;4986549;28;20357;-58
2021/07/11 00:45:52;;;;;;;;;;;19.90;99.90;;;;;;4986377;28;19987;-58
2021/07/11 00:48:18;;;;;;;;;;;20.00;99.90;;;;;;4986348;28;20158;-58
2021/07/11 00:50:46;;;;;;;;;;;19.80;99.90;;;;;;4986727;28;19987;-58
2021/07/11 00:53:12;;;;;;;;;;;19.80;99.90;;;;;;4986310;28;20053;-58
2021/07/11 00:55:38;;;;;;;;;;;19.80;99.90;;;;;;4987277;28;20074;-58
2021/07/11 00:58:04;;;;;;;;;;;19.70;99.90;;;;;;4986383;28;20025;-58
2021/07/11 01:00:30;;;;;;;;;;;19.70;99.90;;;;;;4986388;28;19991;-58
2021/07/11 01:03:06;;;;;;;;;;;19.60;99.90;;;;;;4986500;28;19990;-58
2021/07/11 01:05:32;;;;;;;;;;;19.60;99.90;;;;;;4986447;28;20046;-58
2021/07/11 01:08:17;;;;;;;;;;;19.50;99.90;;;;;;4984984;28;19991;-58
2021/07/11 01:10:51;;;;;;;;;;;19.50;99.90;;;;;;4986516;28;19991;-59
2021/07/11 01:13:18;;;;;;;;;;;19.40;99.90;;;;;;4986060;28;20092;-58
2021/07/11 01:15:48;;;;;;;;;;;19.40;99.90;;;;;;4986027;28;19986;-58
2021/07/11 01:18:16;;;;;;;;;;;19.40;99.90;;;;;;4986126;28;20038;-58
2021/07/11 01:20:49;;;;;;;;;;;19.30;99.90;;;;;;4986402;28;19994;-59
2021/07/11 01:23:33;;;;;;;;;;;19.30;99.90;;;;;;4986105;28;20045;-59
2021/07/11 01:26:01;;;;;;;;;;;19.30;99.90;;;;;;4985896;28;19994;-58
2021/07/11 01:28:26;;;;;;;;;;;19.30;99.90;;;;;;4984800;28;20054;-59
2021/07/11 01:30:52;;;;;;;;;;;19.40;99.90;;;;;;4987038;28;19991;-58
2021/07/11 01:33:20;;;;;;;;;;;19.30;99.90;;;;;;4985785;28;20057;-58
2021/07/11 01:35:47;;;;;;;;;;;19.30;99.90;;;;;;4966910;28;19991;-58
2021/07/11 01:38:12;;;;;;;;;;;19.20;99.90;;;;;;4966387;28;20057;-58
2021/07/11 01:40:41;;;;;;;;;;;18.90;99.90;;;;;;4966771;28;20424;-58
2021/07/11 01:43:07;;;;;;;;;;;18.90;99.90;;;;;;4966482;28;19999;-59
2021/07/11 01:45:32;;;;;;;;;;;18.90;99.90;;;;;;4966425;28;20531;-59
2021/07/11 01:47:58;;;;;;;;;;;19.00;99.90;;;;;;4966433;28;20094;-58
2021/07/11 01:50:25;;;;;;;;;;;19.00;99.90;;;;;;4966655;28;20010;-58
2021/07/11 01:52:52;;;;;;;;;;;18.90;99.90;;;;;;4967371;28;20002;-58
2021/07/11 01:55:17;;;;;;;;;;;18.90;99.90;;;;;;4967052;28;19995;-58
2021/07/11 01:57:43;;;;;;;;;;;18.90;99.90;;;;;;4966393;28;20042;-58
2021/07/11 02:00:14;;;;;;;;;;;18.90;99.90;;;;;;4965030;28;20406;-58
2021/07/11 02:02:40;;;;;;;;;;;18.90;99.90;;;;;;4966508;28;20429;-58
2021/07/11 02:05:07;;;;;;;;;;;18.80;99.90;;;;;;4966238;28;20528;-58
2021/07/11 02:07:34;;;;;;;;;;;18.80;99.90;;;;;;4966382;28;20544;-58
2021/07/11 02:10:00;;;;;;;;;;;18.70;99.90;;;;;;4966266;28;19991;-58
2021/07/11 02:12:27;;;;;;;;;;;18.70;99.90;;;;;;4966188;28;20017;-58
2021/07/11 02:14:54;;;;;;;;;;;18.80;99.90;;;;;;4966164;28;19998;-58
2021/07/11 02:17:20;;;;;;;;;;;18.80;99.90;;;;;;4967086;28;20094;-58
2021/07/11 02:19:46;;;;;;;;;;;18.80;99.90;;;;;;4966575;28;20108;-58
2021/07/11 02:22:12;;;;;;;;;;;19.00;99.90;;;;;;4968187;28;20035;-58
2021/07/11 02:24:38;;;;;;;;;;;18.90;99.90;;;;;;4968649;28;20515;-59
2021/07/11 02:27:05;;;;;;;;;;;19.00;99.90;;;;;;4969205;28;19993;-58
2021/07/11 02:29:36;;;;;;;;;;;19.00;99.90;;;;;;4969674;28;20464;-58
2021/07/11 02:32:04;;;;;;;;;;;19.00;99.90;;;;;;4969590;28;19995;-58
2021/07/11 02:34:30;;;;;;;;;;;19.00;99.90;;;;;;4969773;28;19994;-58
2021/07/11 02:36:57;;;;;;;;;;;19.10;99.90;;;;;;4969752;28;19998;-58
2021/07/11 02:39:23;;;;;;;;;;;19.00;99.90;;;;;;4969650;28;19986;-58
2021/07/11 02:41:51;;;;;;;;;;;18.90;99.90;;;;;;4969954;28;20385;-58
2021/07/11 02:44:17;;;;;;;;;;;18.80;99.90;;;;;;4969826;28;20015;-58
2021/07/11 02:46:44;;;;;;;;;;;18.80;99.90;;;;;;4969808;28;20030;-58
2021/07/11 02:49:11;;;;;;;;;;;18.80;99.90;;;;;;4969200;28;19990;-58
2021/07/11 02:51:39;;;;;;;;;;;18.70;99.90;;;;;;4969450;28;19987;-58
2021/07/11 02:54:06;;;;;;;;;;;18.80;99.90;;;;;;4969222;28;20453;-58
2021/07/11 02:56:38;;;;;;;;;;;18.80;99.90;;;;;;4969161;28;20434;-58
2021/07/11 02:59:05;;;;;;;;;;;18.80;99.90;;;;;;4969018;28;20111;-58
2021/07/11 03:01:32;;;;;;;;;;;18.80;99.90;;;;;;4969175;28;19987;-58
2021/07/11 03:03:59;;;;;;;;;;;18.70;99.90;;;;;;4969174;28;20014;-58
2021/07/11 03:06:25;;;;;;;;;;;18.60;99.90;;;;;;4969123;28;20365;-59
2021/07/11 03:08:50;;;;;;;;;;;18.50;99.90;;;;;;4969733;28;19991;-58
2021/07/11 03:11:16;;;;;;;;;;;18.50;99.90;;;;;;4968691;28;20082;-58
2021/07/11 03:13:41;;;;;;;;;;;18.40;99.90;;;;;;4968915;28;20439;-58
2021/07/11 03:16:07;;;;;;;;;;;18.40;99.90;;;;;;4968487;28;19994;-58
2021/07/11 03:18:36;;;;;;;;;;;18.30;99.90;;;;;;4968767;28;20039;-58
2021/07/11 03:21:05;;;;;;;;;;;18.30;99.90;;;;;;4968733;28;19987;-58
2021/07/11 03:23:32;;;;;;;;;;;18.40;99.90;;;;;;4968860;28;19995;-58
2021/07/11 03:25:58;;;;;;;;;;;18.40;99.90;;;;;;4968664;28;20026;-58
2021/07/11 03:28:25;;;;;;;;;;;18.50;99.90;;;;;;4986576;28;20511;-58
2021/07/11 03:30:52;;;;;;;;;;;18.50;99.90;;;;;;4988668;28;19995;-58
2021/07/11 03:33:18;;;;;;;;;;;18.60;99.90;;;;;;4986199;28;19999;-58
2021/07/11 03:36:04;;;;;;;;;;;18.40;99.90;;;;;;4988349;28;19994;-58
2021/07/11 03:38:44;;;;;;;;;;;18.30;99.90;;;;;;4987440;28;20385;-58
2021/07/11 03:41:12;;;;;;;;;;;18.30;99.90;;;;;;4987635;28;19991;-59
2021/07/11 03:43:39;;;;;;;;;;;18.30;99.90;;;;;;4987708;28;20401;-58
2021/07/11 03:46:07;;;;;;;;;;;18.30;99.90;;;;;;4988089;28;20102;-58
2021/07/11 03:48:38;;;;;;;;;;;18.20;99.90;;;;;;4988307;28;19986;-58
2021/07/11 03:51:04;;;;;;;;;;;18.10;99.90;;;;;;4988330;28;19994;-58
2021/07/11 03:53:31;;;;;;;;;;;18.20;99.90;;;;;;4987834;28;20006;-58
2021/07/11 03:55:58;;;;;;;;;;;18.10;99.90;;;;;;4986117;28;20478;-58
2021/07/11 03:58:25;;;;;;;;;;;18.10;99.90;;;;;;4987577;28;20464;-58
2021/07/11 04:00:52;;;;;;;;;;;18.10;99.90;;;;;;4987548;28;19990;-58
2021/07/11 04:03:19;;;;;;;;;;;18.00;99.90;;;;;;4987154;28;20077;-58
2021/07/11 04:05:44;;;;;;;;;;;18.10;99.90;;;;;;4987552;28;19997;-58
2021/07/11 04:08:12;;;;;;;;;;;18.00;99.90;;;;;;4987026;28;19991;-59
2021/07/11 04:10:39;;;;;;;;;;;18.20;99.90;;;;;;4987179;28;20436;-58
2021/07/11 04:13:04;;;;;;;;;;;18.40;99.90;;;;;;4987521;28;20473;-58
2021/07/11 04:15:31;;;;;;;;;;;18.50;99.90;;;;;;4987215;28;19990;-58
2021/07/11 04:17:59;;;;;;;;;;;18.50;99.90;;;;;;4987217;28;20486;-58
2021/07/11 04:20:26;;;;;;;;;;;18.60;99.90;;;;;;4987306;28;20013;-58
2021/07/11 04:22:54;;;;;;;;;;;18.60;99.90;;;;;;4987213;28;19987;-58
2021/07/11 04:25:19;;;;;;;;;;;18.60;99.90;;;;;;4986838;28;20011;-58
2021/07/11 04:27:46;;;;;;;;;;;18.70;99.90;;;;;;4986804;28;19991;-58
2021/07/11 04:30:14;;;;;;;;;;;18.70;99.90;;;;;;4986842;28;19991;-58
2021/07/11 04:32:39;;;;;;;;;;;18.50;99.90;;;;;;4987092;28;20419;-58
2021/07/11 04:35:05;;;;;;;;;;;18.40;99.90;;;;;;4987278;28;19990;-58
2021/07/11 04:37:30;;;;;;;;;;;18.40;99.90;;;;;;4987636;28;20464;-58
2021/07/11 04:39:56;;;;;;;;;;;18.40;99.90;;;;;;4986890;28;20373;-58
2021/07/11 04:42:21;;;;;;;;;;;18.50;99.90;;;;;;4986499;28;19990;-58
2021/07/11 04:44:47;;;;;;;;;;;18.50;99.90;;;;;;4986568;28;20038;-58
2021/07/11 04:47:14;;;;;;;;;;;18.60;99.90;;;;;;4986511;28;19991;-58
2021/07/11 04:49:39;;;;;;;;;;;18.50;99.90;;;;;;4986718;28;19986;-58
2021/07/11 04:52:05;;;;;;;;;;;18.50;99.90;;;;;;4987154;28;20551;-58
2021/07/11 04:54:32;;;;;;;;;;;18.50;99.90;;;;;;4987168;28;20041;-58
2021/07/11 04:56:57;;;;;;;;;;;18.50;99.90;;;;;;4986250;28;20336;-59
2021/07/11 04:59:23;;;;;;;;;;;18.50;99.90;;;;;;4986571;28;20110;-58
2021/07/11 05:01:48;;;;;;;;;;;18.50;99.90;;;;;;4986900;28;20443;-58
2021/07/11 05:04:14;;;;;;;;;;;18.60;99.90;;;;;;4986224;28;20007;-58
2021/07/11 05:06:39;;;;;;;;;;;18.70;99.90;;;;;;4986578;28;19986;-59
2021/07/11 05:09:05;;;;;;;;;;;18.60;99.90;;;;;;4986664;28;20380;-58
2021/07/11 05:11:31;;;;;;;;;;;18.60;99.90;;;;;;4986855;28;20358;-58
2021/07/11 05:13:56;;;;;;;;;;;18.60;99.90;;;;;;4986928;28;20349;-58
2021/07/11 05:16:22;;;;;;;;;;;18.70;99.90;;;;;;4986198;28;19994;-58
2021/07/11 05:18:47;;;;;;;;;;;18.70;99.90;;;;;;4986306;28;19991;-58
2021/07/11 05:21:13;;;;;;;;;;;18.70;99.90;;;;;;4986375;28;19987;-58
2021/07/11 05:23:39;;;;;;;;;;;18.80;99.90;;;;;;4986565;28;19994;-58
2021/07/11 05:26:05;;;;;;;;;;;18.80;99.90;;;;;;4986415;28;20425;-58
2021/07/11 05:28:31;;;;;;;;;;;18.80;99.90;;;;;;4987080;28;19995;-58
2021/07/11 05:30:57;;;;;;;;;;;18.90;99.90;;;;;;4986243;28;20349;-58
2021/07/11 05:33:23;;;;;;;;;;;18.90;99.90;;;;;;4986039;28;19995;-58
2021/07/11 05:35:48;;;;;;;;;;;18.80;99.90;;;;;;4986225;28;19993;-58
2021/07/11 05:38:14;;;;;;;;;;;18.80;99.90;;;;;;4985959;28;19987;-58
2021/07/11 05:40:40;;;;;;;;;;;18.80;99.90;;;;;;4985975;28;19991;-58
2021/07/11 05:43:05;;;;;;;;;;;18.80;99.90;;;;;;4986428;28;20002;-58
2021/07/11 05:45:31;;;;;;;;;;;18.70;99.90;;;;;;4986710;28;20018;-58
2021/07/11 05:47:56;;;;;;;;;;;18.60;99.90;;;;;;4986431;28;20013;-58
2021/07/11 05:50:22;;;;;;;;;;;18.60;99.90;;;;;;4986902;28;20073;-58
2021/07/11 05:52:47;;;;;;;;;;;18.60;99.90;;;;;;4986421;28;20049;-58
2021/07/11 05:55:13;;;;;;;;;;;18.50;99.90;;;;;;4987528;28;20073;-58
2021/07/11 05:57:38;;;;;;;;;;;18.60;99.90;;;;;;4989185;28;19998;-58
2021/07/11 06:00:05;;;;;;;;;;;18.60;99.90;;;;;;4990080;28;20468;-58
2021/07/11 06:02:31;;;;;;;;;;;18.50;99.90;;;;;;4990169;28;20037;-58
2021/07/11 06:04:56;;;;;;;;;;;18.40;99.90;;;;;;4989666;28;20062;-58
2021/07/11 06:07:22;;;;;;;;;;;18.30;99.90;;;;;;4989357;28;19986;-58
2021/07/11 06:09:47;;;;;;;;;;;18.40;99.90;;;;;;4989368;28;19998;-58
2021/07/11 06:12:15;;;;;;;;;;;18.50;99.90;;;;;;4990393;28;19986;-58
2021/07/11 06:14:41;;;;;;;;;;;18.50;99.90;;;;;;4989978;28;20012;-58
2021/07/11 06:17:06;;;;;;;;;;;18.60;99.90;;;;;;4994145;28;19998;-58
2021/07/11 06:19:32;;;;;;;;;;;18.70;99.90;;;;;;5009887;28;20045;-58
2021/07/11 06:21:58;;;;;;;;;;;18.80;99.90;;;;;;4993631;28;20066;-58
2021/07/11 06:24:23;;;;;;;;;;;18.70;99.90;;;;;;4988745;28;20065;-58
2021/07/11 06:26:49;;;;;;;;;;;18.70;99.90;;;;;;4988592;28;20081;-58
2021/07/11 06:29:14;;;;;;;;;;;18.70;99.90;;;;;;4990516;28;19997;-58
2021/07/11 06:31:40;;;;;;;;;;;18.70;99.90;;;;;;4998846;28;20506;-58
2021/07/11 06:34:06;;;;;;;;;;;18.70;99.90;;;;;;4998393;28;19998;-58
2021/07/11 06:36:31;;;;;;;;;;;18.70;99.90;;;;;;4991077;28;20001;-58
2021/07/11 06:38:58;;;;;;;;;;;18.70;99.90;;;;;;4990280;28;20026;-58
2021/07/11 06:41:23;;;;;;;;;;;18.80;99.90;;;;;;5005198;28;20564;-58
2021/07/11 06:43:49;;;;;;;;;;;18.80;99.90;;;;;;4990259;28;20093;-58
2021/07/11 06:46:14;;;;;;;;;;;18.90;99.90;;;;;;4989953;28;19991;-58
2021/07/11 06:48:40;;;;;;;;;;;19.00;99.90;;;;;;4990278;28;19998;-58
2021/07/11 06:51:05;;;;;;;;;;;18.90;99.90;;;;;;4990346;28;20132;-58
2021/07/11 06:53:32;;;;;;;;;;;18.80;99.90;;;;;;4990762;28;20002;-58
2021/07/11 06:55:58;;;;;;;;;;;18.90;99.90;;;;;;4988345;28;19994;-58
2021/07/11 06:58:24;;;;;;;;;;;19.10;99.90;;;;;;4986323;28;20440;-58
2021/07/11 07:00:49;;;;;;;;;;;19.00;99.90;;;;;;4995158;28;19990;-58
2021/07/11 07:03:15;;;;;;;;;;;19.00;99.90;;;;;;4985832;28;19987;-58
2021/07/11 07:05:40;;;;;;;;;;;19.10;99.90;;;;;;4985865;28;20091;-58
2021/07/11 07:08:06;;;;;;;;;;;19.10;99.90;;;;;;4987101;28;19994;-58
2021/07/11 07:10:31;;;;;;;;;;;19.20;99.90;;;;;;4988978;28;20081;-58
2021/07/11 07:12:57;;;;;;;;;;;19.10;99.90;;;;;;4986141;28;19987;-58
2021/07/11 07:15:22;;;;;;;;;;;19.10;99.90;;;;;;4979744;28;19987;-58
2021/07/11 07:17:48;;;;;;;;;;;19.10;99.90;;;;;;4968898;28;19987;-58
2021/07/11 07:20:14;;;;;;;;;;;19.00;99.90;;;;;;4981347;28;19995;-58
2021/07/11 07:22:40;;;;;;;;;;;19.20;99.90;;;;;;4989142;28;19997;-58
2021/07/11 07:25:07;;;;;;;;;;;19.10;99.90;;;;;;4986486;28;20015;-58
2021/07/11 07:27:33;;;;;;;;;;;19.10;99.90;;;;;;4987883;28;20013;-58
2021/07/11 07:29:58;;;;;;;;;;;19.20;99.90;;;;;;4988603;28;19991;-58
2021/07/11 07:32:24;;;;;;;;;;;19.10;99.90;;;;;;4982205;28;20041;-58
2021/07/11 07:34:49;;;;;;;;;;;19.30;99.90;;;;;;4974854;28;19997;-58
2021/07/11 07:37:15;;;;;;;;;;;19.30;99.90;;;;;;4986332;28;20005;-58
2021/07/11 07:39:41;;;;;;;;;;;19.40;99.90;;;;;;4986422;28;20003;-58
2021/07/11 07:42:07;;;;;;;;;;;19.60;99.90;;;;;;4988425;28;19990;-58
2021/07/11 07:44:33;;;;;;;;;;;19.70;99.90;;;;;;4989190;28;20065;-58
2021/07/11 07:46:58;;;;;;;;;;;19.90;99.90;;;;;;4987957;28;19994;-58
2021/07/11 07:49:25;;;;;;;;;;;20.00;99.90;;;;;;4987772;28;20030;-58
2021/07/11 07:51:51;;;;;;;;;;;20.00;99.90;;;;;;4987391;28;19994;-58
2021/07/11 07:54:17;;;;;;;;;;;20.10;99.90;;;;;;5002060;28;19998;-58
2021/07/11 07:56:42;;;;;;;;;;;20.10;99.90;;;;;;4987537;28;20049;-58
2021/07/11 07:59:08;;;;;;;;;;;20.00;99.90;;;;;;4987000;28;20350;-58
2021/07/11 08:01:33;;;;;;;;;;;20.00;99.90;;;;;;4987990;28;19987;-58
2021/07/11 08:03:59;;;;;;;;;;;20.20;99.90;;;;;;4986901;28;20057;-58
2021/07/11 08:06:26;;;;;;;;;;;20.10;99.90;;;;;;4987111;28;19991;-58
2021/07/11 08:08:52;;;;;;;;;;;19.90;99.90;;;;;;4987576;28;20365;-58
2021/07/11 08:11:18;;;;;;;;;;;20.00;99.90;;;;;;4987150;28;20049;-58
2021/07/11 08:13:43;;;;;;;;;;;20.30;99.90;;;;;;4987181;28;20034;-58
2021/07/11 08:16:09;;;;;;;;;;;20.30;99.90;;;;;;4987803;28;20733;-58
2021/07/11 08:18:35;;;;;;;;;;;20.30;99.90;;;;;;4988758;28;20080;-58
2021/07/11 08:21:01;;;;;;;;;;;20.60;99.90;;;;;;4987771;28;19999;-58
2021/07/11 08:23:26;;;;;;;;;;;20.60;99.90;;;;;;4988596;28;19991;-57
2021/07/11 08:25:52;;;;;;;;;;;20.70;99.90;;;;;;4988293;28;20011;-58
2021/07/11 08:28:17;;;;;;;;;;;20.60;99.90;;;;;;4986782;28;20536;-58
2021/07/11 08:30:44;;;;;;;;;;;20.70;99.90;;;;;;4986355;28;19994;-58
2021/07/11 08:33:10;;;;;;;;;;;20.70;99.90;;;;;;4986465;28;20439;-58
2021/07/11 08:35:36;;;;;;;;;;;20.60;99.90;;;;;;4987324;28;19991;-58
2021/07/11 08:38:02;;;;;;;;;;;20.60;99.90;;;;;;4986967;28;19993;-58
2021/07/11 08:40:32;;;;;;;;;;;20.70;99.90;;;;;;4987061;28;20396;-58
2021/07/11 08:42:57;;;;;;;;;;;20.70;99.90;;;;;;4986707;28;20472;-58
2021/07/11 08:45:23;;;;;;;;;;;20.70;99.90;;;;;;4986802;28;20017;-58
2021/07/11 08:47:49;;;;;;;;;;;20.70;99.90;;;;;;4986325;28;19998;-58
2021/07/11 08:50:14;;;;;;;;;;;20.50;99.90;;;;;;4986439;28;20040;-58
2021/07/11 08:52:40;;;;;;;;;;;20.50;99.90;;;;;;4982313;28;20081;-58
2021/07/11 08:55:12;;;;;;;;;;;20.80;99.90;;;;;;4987255;28;20071;-58
2021/07/11 08:57:37;;;;;;;;;;;20.80;99.90;;;;;;4986679;28;19987;-58
2021/07/11 09:00:04;;;;;;;;;;;21.00;99.90;;;;;;4987356;28;20032;-58
2021/07/11 09:02:30;;;;;;;;;;;20.90;99.90;;;;;;4985688;28;19997;-58
2021/07/11 09:04:57;;;;;;;;;;;21.10;99.90;;;;;;4985922;28;20018;-58
2021/07/11 09:07:23;;;;;;;;;;;20.60;99.90;;;;;;4985935;28;19991;-57
2021/07/11 09:09:56;;;;;;;;;;;20.70;99.90;;;;;;4986126;28;20355;-58
2021/07/11 09:12:21;;;;;;;;;;;20.90;99.90;;;;;;4985964;28;20376;-58
2021/07/11 09:14:48;;;;;;;;;;;20.90;99.90;;;;;;4985762;28;19991;-58
2021/07/11 09:17:13;;;;;;;;;;;21.00;99.90;;;;;;4985361;28;19987;-58
2021/07/11 09:19:41;;;;;;;;;;;21.20;99.90;;;;;;4986273;28;19987;-58
2021/07/11 09:22:11;;;;;;;;;;;21.30;99.90;;;;;;4985803;28;19995;-58
2021/07/11 09:24:38;;;;;;;;;;;21.30;99.90;;;;;;4985817;28;20018;-58
2021/07/11 09:27:12;;;;;;;;;;;21.30;99.90;;;;;;4986596;28;19991;-58
2021/07/11 09:29:38;;;;;;;;;;;21.40;99.90;;;;;;4986245;28;20096;-58
2021/07/11 09:32:05;;;;;;;;;;;21.50;99.90;;;;;;4988154;28;20310;-58
2021/07/11 09:34:30;;;;;;;;;;;21.50;99.90;;;;;;4990459;28;20303;-58
2021/07/11 09:37:16;;;;;;;;;;;21.50;99.90;;;;;;4990060;28;20049;-58
2021/07/11 09:39:52;;;;;;;;;;;21.40;99.90;;;;;;4990360;28;19987;-58
2021/07/11 09:42:24;;;;;;;;;;;21.40;99.90;;;;;;4989821;28;20496;-58
2021/07/11 09:44:50;;;;;;;;;;;21.30;99.90;;;;;;4990109;28;20017;-58
2021/07/11 09:47:16;;;;;;;;;;;21.10;99.90;;;;;;4989481;28;19986;-58
2021/07/11 09:49:43;;;;;;;;;;;21.10;99.90;;;;;;4990381;28;19990;-58
2021/07/11 09:52:08;;;;;;;;;;;21.10;99.90;;;;;;4989713;28;19994;-58
2021/07/11 09:54:34;;;;;;;;;;;21.40;99.90;;;;;;4990337;28;19998;-57
2021/07/11 09:57:06;;;;;;;;;;;21.70;99.90;;;;;;4989258;28;19994;-58
2021/07/11 09:59:31;;;;;;;;;;;21.80;99.90;;;;;;4990757;28;20065;-58
2021/07/11 10:01:58;;;;;;;;;;;21.90;99.90;;;;;;4989584;28;19990;-58
2021/07/11 10:04:24;;;;;;;;;;;21.90;99.90;;;;;;4989798;28;20006;-58
2021/07/11 10:06:49;;;;;;;;;;;21.90;99.90;;;;;;4989612;28;20544;-58
2021/07/11 10:09:16;;;;;;;;;;;21.90;99.90;;;;;;4989280;28;19987;-58
2021/07/11 10:11:42;;;;;;;;;;;21.90;99.90;;;;;;4989512;28;20013;-58
2021/07/11 10:14:08;;;;;;;;;;;22.00;99.90;;;;;;4988871;28;19990;-58
2021/07/11 10:16:36;;;;;;;;;;;21.90;99.90;;;;;;4989861;28;20376;-57
2021/07/11 10:19:02;;;;;;;;;;;21.60;99.90;;;;;;4989663;28;19991;-58
2021/07/11 10:21:29;;;;;;;;;;;21.50;99.90;;;;;;4989400;28;20477;-57
2021/07/11 10:23:55;;;;;;;;;;;21.30;99.90;;;;;;4989381;28;20028;-57
2021/07/11 10:26:21;;;;;;;;;;;21.30;99.90;;;;;;4988747;28;19990;-57
2021/07/11 10:28:48;;;;;;;;;;;21.20;99.90;;;;;;4989461;28;20376;-57
2021/07/11 10:31:21;;;;;;;;;;;21.50;99.90;;;;;;4988895;28;19990;-57
2021/07/11 10:33:48;;;;;;;;;;;21.70;99.90;;;;;;4989135;28;19994;-58
2021/07/11 10:36:13;;;;;;;;;;;21.70;99.90;;;;;;4988826;28;19990;-57
2021/07/11 10:38:43;;;;;;;;;;;21.90;99.90;;;;;;4988922;28;20373;-58
2021/07/11 10:41:21;;;;;;;;;;;22.00;99.90;;;;;;4988741;28;19998;-58
2021/07/11 10:44:10;;;;;;;;;;;22.30;99.90;;;;;;4988303;28;19994;-58
2021/07/11 10:46:41;;;;;;;;;;;22.40;99.90;;;;;;4983467;28;20296;-58
2021/07/11 10:49:12;;;;;;;;;;;22.50;99.90;;;;;;4988287;28;19994;-58
2021/07/11 10:51:42;;;;;;;;;;;22.30;99.90;;;;;;4988842;28;19998;-57
2021/07/11 10:54:20;;;;;;;;;;;22.60;99.90;;;;;;4988425;28;20003;-57
2021/07/11 10:56:47;;;;;;;;;;;22.80;99.90;;;;;;5003530;28;19996;-57
2021/07/11 10:59:24;;;;;;;;;;;22.60;99.90;;;;;;4988125;28;20350;-57
2021/07/11 11:01:49;;;;;;;;;;;22.60;99.90;;;;;;4988845;28;19993;-58
2021/07/11 11:04:16;;;;;;;;;;;22.50;99.90;;;;;;4988311;28;20010;-57
2021/07/11 11:06:41;;;;;;;;;;;22.60;99.90;;;;;;4988442;28;20044;-57
2021/07/11 11:09:07;;;;;;;;;;;22.80;99.90;;;;;;4988180;28;19991;-58
2021/07/11 11:11:32;;;;;;;;;;;22.90;99.90;;;;;;5003869;28;20140;-57
2021/07/11 11:14:07;;;;;;;;;;;23.10;99.90;;;;;;4987541;28;19998;-57
2021/07/11 11:16:40;;;;;;;;;;;23.30;99.90;;;;;;4989011;28;20003;-56
2021/07/11 11:19:12;;;;;;;;;;;23.00;99.90;;;;;;4987891;28;20133;-57
2021/07/11 11:21:37;;;;;;;;;;;22.80;99.90;;;;;;4988526;28;20049;-57
2021/07/11 11:24:03;;;;;;;;;;;22.70;99.90;;;;;;4988738;28;20010;-57
2021/07/11 11:26:29;;;;;;;;;;;22.60;99.90;;;;;;4988146;28;19997;-57
2021/07/11 11:28:56;;;;;;;;;;;22.90;99.90;;;;;;5002689;28;20479;-57
2021/07/11 11:31:24;;;;;;;;;;;23.10;99.90;;;;;;4987802;28;19990;-57
2021/07/11 11:33:53;;;;;;;;;;;23.30;99.90;;;;;;4987949;28;19986;-57
2021/07/11 11:36:29;;;;;;;;;;;23.60;99.90;;;;;;4987995;28;20018;-58
2021/07/11 11:38:55;;;;;;;;;;;23.80;99.90;;;;;;4987479;28;19997;-57
2021/07/11 11:41:22;;;;;;;;;;;24.00;99.90;;;;;;4987620;28;19987;-58
2021/07/11 11:43:49;;;;;;;;;;;24.10;99.90;;;;;;4987722;28;20014;-58
2021/07/11 11:46:31;;;;;;;;;;;24.10;99.90;;;;;;4987644;28;20018;-58
2021/07/11 11:49:02;;;;;;;;;;;24.30;99.90;;;;;;4987529;28;20041;-57
2021/07/11 11:51:28;;;;;;;;;;;24.40;99.90;;;;;;4987898;28;20026;-57
2021/07/11 11:53:54;;;;;;;;;;;24.50;99.90;;;;;;4986592;28;20042;-58
2021/07/11 11:56:19;;;;;;;;;;;24.80;99.90;;;;;;4986967;28;20452;-57
2021/07/11 11:58:45;;;;;;;;;;;25.10;99.90;;;;;;4987095;28;19987;-57
2021/07/11 12:01:12;;;;;;;;;;;25.10;99.90;;;;;;4986904;28;20405;-58
2021/07/11 12:03:39;;;;;;;;;;;25.20;99.90;;;;;;4986935;28;20100;-57
2021/07/11 12:06:06;;;;;;;;;;;25.40;99.90;;;;;;4987415;28;20404;-58
2021/07/11 12:08:32;;;;;;;;;;;25.40;99.90;;;;;;4987724;28;20362;-58
2021/07/11 12:10:58;;;;;;;;;;;25.50;99.90;;;;;;4986492;28;19993;-58
2021/07/11 12:13:25;;;;;;;;;;;25.80;99.90;;;;;;4987023;28;19991;-57
2021/07/11 12:16:02;;;;;;;;;;;26.20;99.90;;;;;;4986483;28;19987;-58
2021/07/11 12:18:28;;;;;;;;;;;26.50;99.90;;;;;;4986661;28;19990;-58
2021/07/11 12:20:55;;;;;;;;;;;26.50;99.90;;;;;;4986787;28;19998;-58
2021/07/11 12:23:21;;;;;;;;;;;26.60;99.90;;;;;;4986515;28;20225;-57
2021/07/11 12:26:00;;;;;;;;;;;26.90;99.90;;;;;;4986346;28;20531;-58
2021/07/11 12:28:25;;;;;;;;;;;26.90;99.90;;;;;;4986761;28;20037;-57
2021/07/11 12:30:51;;;;;;;;;;;27.00;99.90;;;;;;4986520;28;20452;-58
2021/07/11 12:33:26;;;;;;;;;;;27.00;99.90;;;;;;4986257;28;19990;-56
2021/07/11 12:35:53;;;;;;;;;;;26.90;99.90;;;;;;4986669;28;20084;-58
2021/07/11 12:38:29;;;;;;;;;;;26.20;99.90;;;;;;4986160;28;20376;-57
2021/07/11 12:40:55;;;;;;;;;;;26.20;99.90;;;;;;4986288;28;19990;-57
2021/07/11 12:43:28;;;;;;;;;;;26.20;99.90;;;;;;4986298;28;19987;-58
2021/07/11 12:46:01;;;;;;;;;;;26.30;99.90;;;;;;4986115;28;20455;-58
2021/07/11 12:48:38;;;;;;;;;;;26.70;99.90;;;;;;4986295;28;20073;-58
2021/07/11 12:51:21;;;;;;;;;;;26.90;99.90;;;;;;4986494;28;20480;-58
2021/07/11 12:53:49;;;;;;;;;;;27.30;99.90;;;;;;4986296;28;19998;-58
2021/07/11 12:56:16;;;;;;;;;;;27.30;99.90;;;;;;4985668;28;20089;-57
2021/07/11 12:58:43;;;;;;;;;;;27.40;99.90;;;;;;4986240;28;19990;-58
2021/07/11 13:01:09;;;;;;;;;;;27.30;99.90;;;;;;4985957;28;19986;-57
2021/07/11 13:03:36;;;;;;;;;;;26.80;99.90;;;;;;4986778;28;19994;-57
2021/07/11 13:06:02;;;;;;;;;;;26.60;99.90;;;;;;4986058;28;20011;-57
2021/07/11 13:08:28;;;;;;;;;;;26.60;99.90;;;;;;4985976;28;20085;-57
2021/07/11 13:10:53;;;;;;;;;;;26.70;99.90;;;;;;4985913;28;20159;-58
2021/07/11 13:13:19;;;;;;;;;;;26.80;99.90;;;;;;4985764;28;20012;-58
2021/07/11 13:15:44;;;;;;;;;;;26.90;99.90;;;;;;4985619;28;19986;-58
2021/07/11 13:18:13;;;;;;;;;;;27.20;99.90;;;;;;4985864;28;19994;-57
2021/07/11 13:20:40;;;;;;;;;;;27.30;99.90;;;;;;4985964;28;20045;-58
2021/07/11 13:23:05;;;;;;;;;;;26.60;99.90;;;;;;4986351;28;20468;-58
2021/07/11 13:25:31;;;;;;;;;;;27.00;99.90;;;;;;4986229;28;20014;-58
2021/07/11 13:27:56;;;;;;;;;;;27.40;99.90;;;;;;4985911;28;19987;-58
2021/07/11 13:30:29;;;;;;;;;;;27.40;99.90;;;;;;4985620;28;20085;-58
2021/07/11 13:32:57;;;;;;;;;;;27.70;99.90;;;;;;4986033;28;20034;-58
2021/07/11 13:35:23;;;;;;;;;;;27.60;99.90;;;;;;4985895;28;19991;-58
2021/07/11 13:37:51;;;;;;;;;;;27.30;99.90;;;;;;4985718;28;19990;-58
2021/07/11 13:40:17;;;;;;;;;;;27.70;99.90;;;;;;4985298;28;20166;-58
2021/07/11 13:42:44;;;;;;;;;;;27.90;99.90;;;;;;4986031;28;20069;-58
2021/07/11 13:45:10;;;;;;;;;;;28.00;99.90;;;;;;4985541;28;20014;-58
2021/07/11 13:47:37;;;;;;;;;;;28.20;99.90;;;;;;4985733;28;19991;-58
2021/07/11 13:50:04;;;;;;;;;;;28.30;99.90;;;;;;4986097;28;19983;-58
2021/07/11 13:52:30;;;;;;;;;;;28.00;99.90;;;;;;4985620;28;20379;-58
2021/07/11 13:54:55;;;;;;;;;;;28.30;99.90;;;;;;4985458;28;19994;-58
2021/07/11 13:57:21;;;;;;;;;;;28.60;99.90;;;;;;4985333;28;19993;-58
2021/07/11 13:59:46;;;;;;;;;;;28.70;99.90;;;;;;4985664;28;20365;-58
2021/07/11 14:02:12;;;;;;;;;;;28.70;99.90;;;;;;4985390;28;19989;-58
2021/07/11 14:04:37;;;;;;;;;;;28.80;99.90;;;;;;4985615;28;20006;-58
2021/07/11 14:07:03;;;;;;;;;;;28.80;99.90;;;;;;4985692;28;20115;-58
2021/07/11 14:09:29;;;;;;;;;;;29.00;99.90;;;;;;4985415;28;19986;-58
2021/07/11 14:11:54;;;;;;;;;;;29.00;99.90;;;;;;4985603;28;20025;-58
2021/07/11 14:14:21;;;;;;;;;;;29.00;99.90;;;;;;4984899;28;19987;-57
2021/07/11 14:16:47;;;;;;;;;;;29.00;99.90;;;;;;4985626;28;19986;-58